Hammond, LA

10:21 PM CST on December 06, 2019 (GMT -0600)
Hammond Municipal

Weather History for KHDC - November, 2019

Change the Weather History Date:

Tuesday, November 12, 2019

  Actual Average (KMSY) Record (KMSY)
Temperature  
Mean Temperature 42 °F -  
Max Temperature 55 °F 70 °F 86 °F (2003)
Min Temperature 30 °F 49 °F 30 °F (1968)
Degree Days  
Heating Degree Days 22    
Moisture  
Dew Point 29 °F    
Average Humidity 71    
Maximum Humidity 94    
Minimum Humidity 43    
Precipitation  
Precipitation 0.00 in - - ()
Sea Level Pressure  
Sea Level Pressure 30.29 in    
Wind  
Wind Speed 15 mph ()    
Max Wind Speed 22 mph    
Max Gust Speed 34 mph    
Visibility 10.0 miles    
Events      
Averages and records for this station are not official NWS values.
T = Trace of Precipitation, MM = Missing Value Source: Averaged Metar Reports

Daily Weather History Graph

Daily Weather History Graph

Search for Another Location

Airport or City:

Astronomy

Nov. 12, 2019 Rise Set
Actual Time 6:24 AM CST 5:06 PM CST
Civil Twilight 5:59 AM CST 5:31 PM CST
Nautical Twilight 5:30 AM CST 6:00 PM CST
Astronomical Twilight 5:02 AM CST 6:28 PM CST
Moon 5:31 PM CST (11/12) 6:20 AM CST (11/12)
Length of Visible Light 11h 31m
Length of Day
10h 41m
Full, 100% of the Moon is Illuminated
Nov 12
Full
Nov 19
Last Quarter
Nov 26
New
Dec 4
First Quarter
Dec 11
Full

Hourly Weather History & Observations

Time (CST) Temp. Windchill Dew Point Humidity Pressure Visibility Wind Dir Wind Speed Gust Speed Precip Events Conditions
12:15 AM 55.4 °F - 53.6 °F 94% 30.07 in 10.0 mi North 21.9 mph 27.6 mph N/A   Overcast
12:35 AM 51.8 °F - 48.2 °F 88% 30.08 in 10.0 mi North 13.8 mph 28.8 mph N/A   Overcast
1:15 AM 50.0 °F - 44.6 °F 82% 30.11 in 10.0 mi NNW 18.4 mph 27.6 mph N/A   Overcast
1:35 AM 46.4 °F 39.5 °F 42.8 °F 87% 30.12 in 10.0 mi NNW 17.3 mph 26.5 mph N/A   Overcast
1:55 AM 44.6 °F 36.1 °F 41.0 °F 87% 30.13 in 7.0 mi North 21.9 mph 32.2 mph N/A   Overcast
2:35 AM 42.8 °F 35.1 °F 41.0 °F 93% 30.14 in 10.0 mi North 16.1 mph 26.5 mph N/A   Overcast
2:55 AM 42.8 °F 34.0 °F 41.0 °F 93% 30.14 in 10.0 mi North 20.7 mph 25.3 mph N/A   Overcast
3:35 AM 41.0 °F 32.5 °F 37.4 °F 87% 30.18 in 10.0 mi North 17.3 mph 33.4 mph N/A   Overcast
3:55 AM 41.0 °F 32.2 °F 35.6 °F 81% 30.18 in 10.0 mi North 18.4 mph 28.8 mph N/A   Overcast
4:15 AM 41.0 °F 33.1 °F 35.6 °F 81% 30.19 in 10.0 mi North 15.0 mph 21.9 mph N/A   Overcast
4:35 AM 41.0 °F 31.9 °F 35.6 °F 81% 30.20 in 10.0 mi North 19.6 mph 29.9 mph N/A   Overcast
4:55 AM 39.2 °F 29.3 °F 33.8 °F 81% 30.21 in 10.0 mi North 20.7 mph 27.6 mph N/A   Overcast
5:15 AM 37.4 °F 26.9 °F 33.8 °F 87% 30.23 in 10.0 mi North 20.7 mph 28.8 mph N/A   Overcast
5:35 AM 37.4 °F 27.2 °F 33.8 °F 87% 30.23 in 10.0 mi North 19.6 mph 27.6 mph N/A   Overcast
5:55 AM 37.4 °F 28.5 °F 33.8 °F 87% 30.25 in 10.0 mi North 15.0 mph 25.3 mph N/A   Overcast
6:15 AM 37.4 °F 26.6 °F 32.0 °F 81% 30.26 in 10.0 mi North 21.9 mph 33.4 mph N/A   Overcast
6:35 AM 35.6 °F 25.9 °F 32.0 °F 87% 30.27 in 10.0 mi North 16.1 mph 26.5 mph N/A   Overcast
7:15 AM 35.6 °F 25.2 °F 32.0 °F 87% 30.29 in 10.0 mi North 18.4 mph 31.1 mph N/A   Overcast
7:55 AM 35.6 °F 25.5 °F 32.0 °F 87% 30.30 in 10.0 mi North 17.3 mph 26.5 mph N/A   Overcast
8:15 AM 35.6 °F 25.5 °F 32.0 °F 87% 30.31 in 10.0 mi North 17.3 mph 34.5 mph N/A   Overcast
8:35 AM 35.6 °F 24.2 °F 32.0 °F 87% 30.31 in 10.0 mi North 21.9 mph 32.2 mph N/A   Overcast
8:55 AM 35.6 °F 25.9 °F 32.0 °F 87% 30.31 in 10.0 mi North 16.1 mph 28.8 mph N/A   Overcast
9:15 AM 35.6 °F 25.5 °F 32.0 °F 87% 30.32 in 10.0 mi North 17.3 mph 27.6 mph N/A   Overcast
9:35 AM 35.6 °F 25.9 °F 32.0 °F 87% 30.34 in 10.0 mi North 16.1 mph 26.5 mph N/A   Overcast
9:55 AM 35.6 °F 25.2 °F 30.2 °F 81% 30.35 in 10.0 mi NNE 18.4 mph 31.1 mph N/A   Overcast
10:15 AM 41.0 °F 31.4 °F 30.2 °F 65% 30.34 in 10.0 mi North 21.9 mph 28.8 mph N/A   Overcast
10:35 AM 37.4 °F 28.9 °F 30.2 °F 75% 30.33 in 10.0 mi North 13.8 mph 18.4 mph N/A   Mostly Cloudy
10:55 AM 39.2 °F 32.0 °F 30.2 °F 70% 30.33 in 10.0 mi North 11.5 mph 24.2 mph N/A   Mostly Cloudy
11:35 AM 42.8 °F 35.4 °F 28.4 °F 57% 30.32 in 10.0 mi North 15.0 mph 24.2 mph N/A   Clear
11:55 AM 42.8 °F 34.0 °F 28.4 °F 57% 30.31 in 10.0 mi North 20.7 mph 28.8 mph N/A   Clear
12:15 PM 42.8 °F 34.0 °F 28.4 °F 57% 30.30 in 10.0 mi North 20.7 mph 28.8 mph N/A   Clear
12:55 PM 44.6 °F 36.9 °F 26.6 °F 49% 30.29 in 10.0 mi North 18.4 mph 27.6 mph N/A   Clear
1:15 PM 44.6 °F 37.8 °F 26.6 °F 49% 30.29 in 10.0 mi North 15.0 mph 25.3 mph N/A   Clear
2:15 PM 44.6 °F 36.9 °F 26.6 °F 49% 30.28 in 10.0 mi North 18.4 mph 28.8 mph N/A   Clear
2:35 PM 44.6 °F 36.6 °F 23.0 °F 43% 30.27 in 10.0 mi North 19.6 mph 26.5 mph N/A   Clear
2:55 PM 44.6 °F 37.4 °F 24.8 °F 46% 30.28 in 10.0 mi North 16.1 mph 23.0 mph N/A   Clear
3:15 PM 42.8 °F 35.8 °F 23.0 °F 46% 30.28 in 10.0 mi North 13.8 mph 27.6 mph N/A   Clear
3:35 PM 42.8 °F 36.2 °F 23.0 °F 46% 30.29 in 10.0 mi North 12.7 mph 26.5 mph N/A   Clear
3:55 PM 42.8 °F 35.1 °F 23.0 °F 46% 30.29 in 10.0 mi North 16.1 mph - N/A   Clear
4:15 PM 41.0 °F 33.5 °F 23.0 °F 49% 30.30 in 10.0 mi North 13.8 mph 20.7 mph N/A   Clear
4:35 PM 41.0 °F 33.1 °F 23.0 °F 49% 30.31 in 10.0 mi North 15.0 mph 20.7 mph N/A   Clear
4:55 PM 39.2 °F 30.8 °F 21.2 °F 49% 30.31 in 10.0 mi North 15.0 mph 20.7 mph N/A   Clear
5:15 PM 37.4 °F 28.9 °F 21.2 °F 52% 30.33 in 10.0 mi North 13.8 mph 23.0 mph N/A   Clear
5:35 PM 35.6 °F 28.0 °F 21.2 °F 56% 30.33 in 10.0 mi North 10.4 mph - N/A   Clear
5:55 PM 35.6 °F 29.9 °F 23.0 °F 60% 30.33 in 10.0 mi North 6.9 mph - N/A   Clear
6:15 PM 35.6 °F 29.2 °F 23.0 °F 60% 30.34 in 10.0 mi North 8.1 mph - N/A   Clear
6:35 PM 33.8 °F 26.4 °F 23.0 °F 65% 30.34 in 10.0 mi North 9.2 mph - N/A   Clear
6:55 PM 33.8 °F 25.8 °F 23.0 °F 65% 30.34 in 10.0 mi North 10.4 mph - N/A   Clear
7:15 PM 33.8 °F 25.8 °F 23.0 °F 65% 30.35 in 10.0 mi North 10.4 mph 19.6 mph N/A   Clear
7:35 PM 33.8 °F 24.8 °F 23.0 °F 65% 30.35 in 10.0 mi North 12.7 mph - N/A   Clear
7:55 PM 32.0 °F 23.6 °F 23.0 °F 69% 30.36 in 10.0 mi North 10.4 mph - N/A   Clear
8:15 PM 32.0 °F 24.8 °F 23.0 °F 69% 30.36 in 10.0 mi North 8.1 mph - N/A   Clear
8:35 PM 32.0 °F 24.2 °F 23.0 °F 69% 30.37 in 10.0 mi North 9.2 mph - N/A   Clear
8:55 PM 32.0 °F 24.2 °F 23.0 °F 69% 30.37 in 10.0 mi North 9.2 mph - N/A   Clear
9:15 PM 32.0 °F 24.2 °F 23.0 °F 69% 30.37 in 10.0 mi North 9.2 mph - N/A   Clear
9:55 PM 32.0 °F 24.2 °F 23.0 °F 69% 30.37 in 10.0 mi North 9.2 mph - N/A   Clear
10:15 PM 30.2 °F 21.9 °F 23.0 °F 75% 30.37 in 10.0 mi North 9.2 mph - N/A   Clear
10:35 PM 30.2 °F 21.9 °F 23.0 °F 75% 30.37 in 10.0 mi North 9.2 mph - N/A   Clear
10:55 PM 30.2 °F 22.6 °F 23.0 °F 75% 30.37 in 10.0 mi North 8.1 mph - N/A   Clear
11:15 PM 30.2 °F 21.9 °F 23.0 °F 75% 30.36 in 10.0 mi North 9.2 mph - N/A   Clear
11:35 PM 30.2 °F 24.3 °F 21.2 °F 69% 30.36 in 10.0 mi NNE 5.8 mph - N/A   Clear
11:55 PM 30.2 °F 23.4 °F 21.2 °F 69% 30.35 in 10.0 mi North 6.9 mph - N/A   Clear